sensor_id;sensor_type;location;lat;lon;timestamp;P1;durP1;ratioP1;P2;durP2;ratioP2
3953;SDS011;1991;48.682;9.030;2023-05-17T00:01:02;2.10;;;0.60;;
3953;SDS011;1991;48.682;9.030;2023-05-17T00:03:27;1.73;;;0.60;;
3953;SDS011;1991;48.682;9.030;2023-05-17T00:05:53;5.23;;;1.00;;
3953;SDS011;1991;48.682;9.030;2023-05-17T00:08:19;4.60;;;0.93;;
3953;SDS011;1991;48.682;9.030;2023-05-17T00:10:44;6.43;;;0.90;;
3953;SDS011;1991;48.682;9.030;2023-05-17T00:13:10;3.37;;;0.90;;
3953;SDS011;1991;48.682;9.030;2023-05-17T00:15:35;4.30;;;1.30;;
3953;SDS011;1991;48.682;9.030;2023-05-17T00:18:01;4.83;;;0.77;;
3953;SDS011;1991;48.682;9.030;2023-05-17T00:20:26;1.33;;;0.60;;
3953;SDS011;1991;48.682;9.030;2023-05-17T00:22:52;4.37;;;1.27;;
3953;SDS011;1991;48.682;9.030;2023-05-17T00:25:17;4.90;;;0.80;;
3953;SDS011;1991;48.682;9.030;2023-05-17T00:27:43;4.97;;;0.70;;
3953;SDS011;1991;48.682;9.030;2023-05-17T00:30:08;3.33;;;1.00;;
3953;SDS011;1991;48.682;9.030;2023-05-17T00:32:34;4.20;;;0.90;;
3953;SDS011;1991;48.682;9.030;2023-05-17T00:35:00;3.27;;;0.80;;
3953;SDS011;1991;48.682;9.030;2023-05-17T00:37:25;2.67;;;0.70;;
3953;SDS011;1991;48.682;9.030;2023-05-17T00:39:51;2.50;;;0.80;;
3953;SDS011;1991;48.682;9.030;2023-05-17T00:42:18;4.07;;;1.00;;
3953;SDS011;1991;48.682;9.030;2023-05-17T00:44:43;6.93;;;1.13;;
3953;SDS011;1991;48.682;9.030;2023-05-17T00:47:09;3.97;;;0.70;;
3953;SDS011;1991;48.682;9.030;2023-05-17T00:49:34;2.17;;;0.70;;
3953;SDS011;1991;48.682;9.030;2023-05-17T00:52:00;4.57;;;0.90;;
3953;SDS011;1991;48.682;9.030;2023-05-17T00:54:26;2.80;;;0.70;;
3953;SDS011;1991;48.682;9.030;2023-05-17T00:56:52;3.20;;;0.80;;
3953;SDS011;1991;48.682;9.030;2023-05-17T00:59:20;5.03;;;1.03;;
3953;SDS011;1991;48.682;9.030;2023-05-17T01:01:47;7.23;;;0.80;;
3953;SDS011;1991;48.682;9.030;2023-05-17T01:04:13;3.93;;;0.80;;
3953;SDS011;1991;48.682;9.030;2023-05-17T01:06:38;2.00;;;0.80;;
3953;SDS011;1991;48.682;9.030;2023-05-17T01:09:04;3.70;;;0.83;;
3953;SDS011;1991;48.682;9.030;2023-05-17T01:20:00;2.23;;;0.63;;
3953;SDS011;1991;48.682;9.030;2023-05-17T01:28:27;3.07;;;0.80;;
3953;SDS011;1991;48.682;9.030;2023-05-17T01:30:55;3.57;;;0.77;;
3953;SDS011;1991;48.682;9.030;2023-05-17T01:33:22;4.40;;;1.00;;
3953;SDS011;1991;48.682;9.030;2023-05-17T01:35:48;3.90;;;0.90;;
3953;SDS011;1991;48.682;9.030;2023-05-17T01:38:14;3.57;;;0.90;;
3953;SDS011;1991;48.682;9.030;2023-05-17T01:40:42;4.83;;;0.87;;
3953;SDS011;1991;48.682;9.030;2023-05-17T01:43:34;3.50;;;0.80;;
3953;SDS011;1991;48.682;9.030;2023-05-17T01:46:10;2.43;;;0.90;;
3953;SDS011;1991;48.682;9.030;2023-05-17T01:49:15;3.37;;;1.33;;
3953;SDS011;1991;48.682;9.030;2023-05-17T01:51:47;4.77;;;0.77;;
3953;SDS011;1991;48.682;9.030;2023-05-17T01:54:19;4.10;;;1.10;;
3953;SDS011;1991;48.682;9.030;2023-05-17T01:56:47;3.93;;;0.70;;
3953;SDS011;1991;48.682;9.030;2023-05-17T01:59:19;4.93;;;1.07;;
3953;SDS011;1991;48.682;9.030;2023-05-17T02:01:49;3.07;;;0.90;;
3953;SDS011;1991;48.682;9.030;2023-05-17T02:04:17;3.17;;;0.90;;
3953;SDS011;1991;48.682;9.030;2023-05-17T02:06:43;5.00;;;1.07;;
3953;SDS011;1991;48.682;9.030;2023-05-17T02:09:09;7.33;;;1.10;;
3953;SDS011;1991;48.682;9.030;2023-05-17T02:11:34;2.00;;;0.77;;
3953;SDS011;1991;48.682;9.030;2023-05-17T02:14:00;2.20;;;0.93;;
3953;SDS011;1991;48.682;9.030;2023-05-17T02:16:26;2.73;;;0.80;;
3953;SDS011;1991;48.682;9.030;2023-05-17T02:18:52;6.70;;;0.87;;
3953;SDS011;1991;48.682;9.030;2023-05-17T02:21:17;4.90;;;0.93;;
3953;SDS011;1991;48.682;9.030;2023-05-17T02:23:43;3.90;;;0.87;;
3953;SDS011;1991;48.682;9.030;2023-05-17T02:26:08;4.70;;;1.20;;
3953;SDS011;1991;48.682;9.030;2023-05-17T02:28:34;2.47;;;0.70;;
3953;SDS011;1991;48.682;9.030;2023-05-17T02:31:00;5.40;;;1.03;;
3953;SDS011;1991;48.682;9.030;2023-05-17T02:33:26;3.00;;;0.77;;
3953;SDS011;1991;48.682;9.030;2023-05-17T02:35:51;4.13;;;1.00;;
3953;SDS011;1991;48.682;9.030;2023-05-17T02:38:17;3.00;;;1.00;;
3953;SDS011;1991;48.682;9.030;2023-05-17T02:40:43;5.97;;;0.90;;
3953;SDS011;1991;48.682;9.030;2023-05-17T02:43:08;2.80;;;1.00;;
3953;SDS011;1991;48.682;9.030;2023-05-17T02:45:34;3.57;;;0.90;;
3953;SDS011;1991;48.682;9.030;2023-05-17T02:47:59;3.30;;;0.73;;
3953;SDS011;1991;48.682;9.030;2023-05-17T02:50:25;4.17;;;0.80;;
3953;SDS011;1991;48.682;9.030;2023-05-17T02:52:50;5.87;;;0.83;;
3953;SDS011;1991;48.682;9.030;2023-05-17T02:55:16;4.53;;;1.00;;
3953;SDS011;1991;48.682;9.030;2023-05-17T02:57:42;6.93;;;1.30;;
3953;SDS011;1991;48.682;9.030;2023-05-17T03:00:07;2.93;;;0.90;;
3953;SDS011;1991;48.682;9.030;2023-05-17T03:02:33;3.60;;;0.80;;
3953;SDS011;1991;48.682;9.030;2023-05-17T03:04:59;2.97;;;0.90;;
3953;SDS011;1991;48.682;9.030;2023-05-17T03:07:25;3.60;;;1.03;;
3953;SDS011;1991;48.682;9.030;2023-05-17T03:09:50;3.80;;;0.90;;
3953;SDS011;1991;48.682;9.030;2023-05-17T03:12:16;3.90;;;1.20;;
3953;SDS011;1991;48.682;9.030;2023-05-17T03:14:41;3.83;;;0.70;;
3953;SDS011;1991;48.682;9.030;2023-05-17T03:17:07;4.47;;;0.73;;
3953;SDS011;1991;48.682;9.030;2023-05-17T03:19:32;6.63;;;1.37;;
3953;SDS011;1991;48.682;9.030;2023-05-17T03:21:58;4.73;;;1.07;;
3953;SDS011;1991;48.682;9.030;2023-05-17T03:24:23;5.50;;;1.10;;
3953;SDS011;1991;48.682;9.030;2023-05-17T03:26:49;4.73;;;0.90;;
3953;SDS011;1991;48.682;9.030;2023-05-17T03:29:15;5.10;;;1.07;;
3953;SDS011;1991;48.682;9.030;2023-05-17T03:31:40;4.43;;;1.00;;
3953;SDS011;1991;48.682;9.030;2023-05-17T03:34:06;5.90;;;1.07;;
3953;SDS011;1991;48.682;9.030;2023-05-17T03:36:33;3.43;;;1.20;;
3953;SDS011;1991;48.682;9.030;2023-05-17T03:38:58;4.17;;;1.23;;
3953;SDS011;1991;48.682;9.030;2023-05-17T03:41:24;6.27;;;1.40;;
3953;SDS011;1991;48.682;9.030;2023-05-17T03:43:50;2.47;;;1.00;;
3953;SDS011;1991;48.682;9.030;2023-05-17T03:46:15;3.07;;;0.80;;
3953;SDS011;1991;48.682;9.030;2023-05-17T03:48:41;3.87;;;0.97;;
3953;SDS011;1991;48.682;9.030;2023-05-17T03:51:06;4.83;;;1.33;;
3953;SDS011;1991;48.682;9.030;2023-05-17T03:53:32;4.07;;;1.20;;
3953;SDS011;1991;48.682;9.030;2023-05-17T03:55:57;2.87;;;1.30;;
3953;SDS011;1991;48.682;9.030;2023-05-17T03:58:23;3.87;;;1.50;;
3953;SDS011;1991;48.682;9.030;2023-05-17T04:00:49;3.50;;;1.30;;
3953;SDS011;1991;48.682;9.030;2023-05-17T04:03:14;2.87;;;1.30;;
3953;SDS011;1991;48.682;9.030;2023-05-17T04:05:40;2.93;;;1.67;;
3953;SDS011;1991;48.682;9.030;2023-05-17T04:08:05;6.20;;;1.60;;
3953;SDS011;1991;48.682;9.030;2023-05-17T04:10:31;11.30;;;2.57;;
3953;SDS011;1991;48.682;9.030;2023-05-17T04:12:57;6.03;;;2.87;;
3953;SDS011;1991;48.682;9.030;2023-05-17T04:15:22;4.57;;;2.10;;
3953;SDS011;1991;48.682;9.030;2023-05-17T04:17:48;4.60;;;1.50;;
3953;SDS011;1991;48.682;9.030;2023-05-17T04:20:13;3.93;;;1.60;;
3953;SDS011;1991;48.682;9.030;2023-05-17T04:22:39;6.73;;;1.70;;
3953;SDS011;1991;48.682;9.030;2023-05-17T04:25:05;3.57;;;1.43;;
3953;SDS011;1991;48.682;9.030;2023-05-17T04:27:31;4.67;;;1.80;;
3953;SDS011;1991;48.682;9.030;2023-05-17T04:29:56;4.20;;;1.37;;
3953;SDS011;1991;48.682;9.030;2023-05-17T04:32:22;3.43;;;1.33;;
3953;SDS011;1991;48.682;9.030;2023-05-17T04:34:48;3.23;;;1.17;;
3953;SDS011;1991;48.682;9.030;2023-05-17T04:37:13;6.63;;;1.57;;
3953;SDS011;1991;48.682;9.030;2023-05-17T04:39:40;5.33;;;1.57;;
3953;SDS011;1991;48.682;9.030;2023-05-17T04:42:05;5.00;;;1.73;;
3953;SDS011;1991;48.682;9.030;2023-05-17T04:44:31;4.90;;;1.53;;
3953;SDS011;1991;48.682;9.030;2023-05-17T04:46:57;8.07;;;1.70;;
3953;SDS011;1991;48.682;9.030;2023-05-17T04:49:22;12.53;;;1.93;;
3953;SDS011;1991;48.682;9.030;2023-05-17T04:51:49;4.43;;;1.57;;
3953;SDS011;1991;48.682;9.030;2023-05-17T04:54:14;6.57;;;2.23;;
3953;SDS011;1991;48.682;9.030;2023-05-17T04:56:40;6.43;;;2.70;;
3953;SDS011;1991;48.682;9.030;2023-05-17T04:59:05;5.10;;;1.73;;
3953;SDS011;1991;48.682;9.030;2023-05-17T05:01:31;4.47;;;1.87;;
3953;SDS011;1991;48.682;9.030;2023-05-17T05:03:59;6.30;;;1.70;;
3953;SDS011;1991;48.682;9.030;2023-05-17T05:06:24;6.97;;;1.90;;
3953;SDS011;1991;48.682;9.030;2023-05-17T05:08:50;3.93;;;1.30;;
3953;SDS011;1991;48.682;9.030;2023-05-17T05:11:16;3.90;;;1.70;;
3953;SDS011;1991;48.682;9.030;2023-05-17T05:13:42;6.50;;;2.00;;
3953;SDS011;1991;48.682;9.030;2023-05-17T05:16:07;5.87;;;2.03;;
3953;SDS011;1991;48.682;9.030;2023-05-17T05:18:33;3.20;;;1.50;;
3953;SDS011;1991;48.682;9.030;2023-05-17T05:20:59;4.60;;;1.83;;
3953;SDS011;1991;48.682;9.030;2023-05-17T05:23:24;4.90;;;1.33;;
3953;SDS011;1991;48.682;9.030;2023-05-17T05:25:50;3.23;;;1.40;;
3953;SDS011;1991;48.682;9.030;2023-05-17T05:28:16;2.67;;;1.23;;
3953;SDS011;1991;48.682;9.030;2023-05-17T05:30:41;11.57;;;2.23;;
3953;SDS011;1991;48.682;9.030;2023-05-17T05:33:07;2.07;;;1.47;;
3953;SDS011;1991;48.682;9.030;2023-05-17T05:35:33;7.10;;;1.77;;
3953;SDS011;1991;48.682;9.030;2023-05-17T05:37:58;7.10;;;1.70;;
3953;SDS011;1991;48.682;9.030;2023-05-17T05:40:24;4.67;;;1.50;;
3953;SDS011;1991;48.682;9.030;2023-05-17T05:42:50;5.90;;;1.73;;
3953;SDS011;1991;48.682;9.030;2023-05-17T05:45:16;4.63;;;2.07;;
3953;SDS011;1991;48.682;9.030;2023-05-17T05:47:42;5.50;;;1.53;;
3953;SDS011;1991;48.682;9.030;2023-05-17T05:50:08;7.97;;;1.30;;
3953;SDS011;1991;48.682;9.030;2023-05-17T05:52:34;4.37;;;1.60;;
3953;SDS011;1991;48.682;9.030;2023-05-17T05:55:00;4.00;;;1.40;;
3953;SDS011;1991;48.682;9.030;2023-05-17T05:57:25;6.13;;;1.53;;
3953;SDS011;1991;48.682;9.030;2023-05-17T05:59:51;6.20;;;1.23;;
3953;SDS011;1991;48.682;9.030;2023-05-17T06:02:16;3.87;;;1.47;;
3953;SDS011;1991;48.682;9.030;2023-05-17T06:04:43;3.50;;;1.57;;
3953;SDS011;1991;48.682;9.030;2023-05-17T06:07:08;3.30;;;1.53;;
3953;SDS011;1991;48.682;9.030;2023-05-17T06:09:34;9.30;;;1.83;;
3953;SDS011;1991;48.682;9.030;2023-05-17T06:12:00;4.07;;;1.47;;
3953;SDS011;1991;48.682;9.030;2023-05-17T06:14:25;6.50;;;1.60;;
3953;SDS011;1991;48.682;9.030;2023-05-17T06:16:51;5.00;;;1.60;;
3953;SDS011;1991;48.682;9.030;2023-05-17T06:19:16;7.97;;;1.70;;
3953;SDS011;1991;48.682;9.030;2023-05-17T06:21:42;6.80;;;1.90;;
3953;SDS011;1991;48.682;9.030;2023-05-17T06:24:08;7.77;;;1.80;;
3953;SDS011;1991;48.682;9.030;2023-05-17T06:26:33;3.57;;;1.53;;
3953;SDS011;1991;48.682;9.030;2023-05-17T06:28:59;3.03;;;1.20;;
3953;SDS011;1991;48.682;9.030;2023-05-17T06:31:25;2.80;;;1.23;;
3953;SDS011;1991;48.682;9.030;2023-05-17T06:33:50;5.07;;;1.53;;
3953;SDS011;1991;48.682;9.030;2023-05-17T06:36:16;5.83;;;1.50;;
3953;SDS011;1991;48.682;9.030;2023-05-17T06:38:41;4.63;;;2.17;;
3953;SDS011;1991;48.682;9.030;2023-05-17T06:41:07;4.17;;;1.77;;
3953;SDS011;1991;48.682;9.030;2023-05-17T06:43:33;5.73;;;1.80;;
3953;SDS011;1991;48.682;9.030;2023-05-17T06:45:58;4.73;;;1.90;;
3953;SDS011;1991;48.682;9.030;2023-05-17T06:48:24;6.47;;;2.17;;
3953;SDS011;1991;48.682;9.030;2023-05-17T06:50:50;5.73;;;2.10;;
3953;SDS011;1991;48.682;9.030;2023-05-17T06:53:15;6.70;;;1.93;;
3953;SDS011;1991;48.682;9.030;2023-05-17T06:55:41;7.50;;;2.07;;
3953;SDS011;1991;48.682;9.030;2023-05-17T06:58:07;7.33;;;2.20;;
3953;SDS011;1991;48.682;9.030;2023-05-17T07:00:33;6.87;;;2.30;;
3953;SDS011;1991;48.682;9.030;2023-05-17T07:02:59;7.47;;;2.23;;
3953;SDS011;1991;48.682;9.030;2023-05-17T07:05:24;8.87;;;2.43;;
3953;SDS011;1991;48.682;9.030;2023-05-17T07:07:52;6.67;;;2.20;;
3953;SDS011;1991;48.682;9.030;2023-05-17T07:10:18;7.87;;;2.50;;
3953;SDS011;1991;48.682;9.030;2023-05-17T07:12:43;4.07;;;2.00;;
3953;SDS011;1991;48.682;9.030;2023-05-17T07:15:09;6.50;;;2.80;;
3953;SDS011;1991;48.682;9.030;2023-05-17T07:17:35;5.50;;;2.67;;
3953;SDS011;1991;48.682;9.030;2023-05-17T07:20:01;5.43;;;2.40;;
3953;SDS011;1991;48.682;9.030;2023-05-17T07:22:27;6.80;;;2.40;;
3953;SDS011;1991;48.682;9.030;2023-05-17T07:24:53;6.30;;;2.07;;
3953;SDS011;1991;48.682;9.030;2023-05-17T07:27:18;5.33;;;2.23;;
3953;SDS011;1991;48.682;9.030;2023-05-17T07:29:44;5.63;;;2.40;;
3953;SDS011;1991;48.682;9.030;2023-05-17T07:32:10;5.53;;;2.25;;
3953;SDS011;1991;48.682;9.030;2023-05-17T07:34:35;3.30;;;2.10;;
3953;SDS011;1991;48.682;9.030;2023-05-17T07:37:01;6.23;;;2.50;;
3953;SDS011;1991;48.682;9.030;2023-05-17T07:39:27;4.67;;;2.60;;
3953;SDS011;1991;48.682;9.030;2023-05-17T07:41:52;4.95;;;2.33;;
3953;SDS011;1991;48.682;9.030;2023-05-17T07:44:18;6.57;;;2.22;;
3953;SDS011;1991;48.682;9.030;2023-05-17T07:46:45;5.80;;;2.13;;
3953;SDS011;1991;48.682;9.030;2023-05-17T07:49:12;5.28;;;2.33;;
3953;SDS011;1991;48.682;9.030;2023-05-17T07:51:38;6.45;;;2.53;;
3953;SDS011;1991;48.682;9.030;2023-05-17T07:54:04;7.85;;;2.25;;
3953;SDS011;1991;48.682;9.030;2023-05-17T07:56:30;7.00;;;3.25;;
3953;SDS011;1991;48.682;9.030;2023-05-17T07:58:57;7.45;;;2.40;;
3953;SDS011;1991;48.682;9.030;2023-05-17T08:01:23;5.68;;;2.03;;
3953;SDS011;1991;48.682;9.030;2023-05-17T08:03:49;6.40;;;2.25;;
3953;SDS011;1991;48.682;9.030;2023-05-17T08:06:15;10.90;;;2.58;;
3953;SDS011;1991;48.682;9.030;2023-05-17T08:08:41;6.43;;;2.40;;
3953;SDS011;1991;48.682;9.030;2023-05-17T08:11:07;4.15;;;2.60;;
3953;SDS011;1991;48.682;9.030;2023-05-17T08:13:33;7.28;;;2.80;;
3953;SDS011;1991;48.682;9.030;2023-05-17T08:15:59;5.80;;;2.17;;
3953;SDS011;1991;48.682;9.030;2023-05-17T08:18:27;3.97;;;2.35;;
3953;SDS011;1991;48.682;9.030;2023-05-17T08:20:54;6.18;;;2.63;;
3953;SDS011;1991;48.682;9.030;2023-05-17T08:23:20;10.63;;;2.50;;
3953;SDS011;1991;48.682;9.030;2023-05-17T08:25:46;5.20;;;2.20;;
3953;SDS011;1991;48.682;9.030;2023-05-17T08:28:11;5.30;;;2.50;;
3953;SDS011;1991;48.682;9.030;2023-05-17T08:30:37;5.38;;;2.20;;
3953;SDS011;1991;48.682;9.030;2023-05-17T08:33:02;5.15;;;2.38;;
3953;SDS011;1991;48.682;9.030;2023-05-17T08:35:28;4.40;;;2.60;;
3953;SDS011;1991;48.682;9.030;2023-05-17T08:37:55;7.70;;;2.85;;
3953;SDS011;1991;48.682;9.030;2023-05-17T08:40:21;4.32;;;2.50;;
3953;SDS011;1991;48.682;9.030;2023-05-17T08:42:47;9.00;;;3.17;;
3953;SDS011;1991;48.682;9.030;2023-05-17T08:45:14;7.30;;;3.20;;
3953;SDS011;1991;48.682;9.030;2023-05-17T08:47:41;3.65;;;2.45;;
3953;SDS011;1991;48.682;9.030;2023-05-17T08:50:08;5.53;;;2.78;;
3953;SDS011;1991;48.682;9.030;2023-05-17T08:52:35;4.25;;;2.72;;
3953;SDS011;1991;48.682;9.030;2023-05-17T08:55:01;5.35;;;2.97;;
3953;SDS011;1991;48.682;9.030;2023-05-17T08:57:32;5.40;;;2.88;;
3953;SDS011;1991;48.682;9.030;2023-05-17T09:00:00;6.97;;;2.75;;
3953;SDS011;1991;48.682;9.030;2023-05-17T09:02:28;6.32;;;2.88;;
3953;SDS011;1991;48.682;9.030;2023-05-17T09:04:55;4.10;;;1.90;;
3953;SDS011;1991;48.682;9.030;2023-05-17T09:07:21;8.20;;;2.60;;
3953;SDS011;1991;48.682;9.030;2023-05-17T09:09:50;5.68;;;2.90;;
3953;SDS011;1991;48.682;9.030;2023-05-17T09:12:17;4.72;;;2.85;;
3953;SDS011;1991;48.682;9.030;2023-05-17T09:14:43;8.95;;;3.00;;
3953;SDS011;1991;48.682;9.030;2023-05-17T09:17:12;7.25;;;2.95;;
3953;SDS011;1991;48.682;9.030;2023-05-17T09:19:43;12.68;;;3.13;;
3953;SDS011;1991;48.682;9.030;2023-05-17T09:22:11;8.95;;;3.28;;
3953;SDS011;1991;48.682;9.030;2023-05-17T09:24:38;6.00;;;2.75;;
3953;SDS011;1991;48.682;9.030;2023-05-17T09:27:05;4.88;;;2.45;;
3953;SDS011;1991;48.682;9.030;2023-05-17T09:29:31;6.97;;;2.88;;
3953;SDS011;1991;48.682;9.030;2023-05-17T09:32:17;5.57;;;2.58;;
3953;SDS011;1991;48.682;9.030;2023-05-17T09:34:45;3.45;;;2.50;;
3953;SDS011;1991;48.682;9.030;2023-05-17T09:37:12;5.45;;;2.60;;
3953;SDS011;1991;48.682;9.030;2023-05-17T09:39:40;5.65;;;3.08;;
3953;SDS011;1991;48.682;9.030;2023-05-17T09:42:06;4.88;;;2.55;;
3953;SDS011;1991;48.682;9.030;2023-05-17T09:44:54;5.22;;;2.50;;
3953;SDS011;1991;48.682;9.030;2023-05-17T09:47:24;4.10;;;2.45;;
3953;SDS011;1991;48.682;9.030;2023-05-17T09:49:51;6.43;;;2.40;;
3953;SDS011;1991;48.682;9.030;2023-05-17T09:52:17;4.60;;;2.63;;
3953;SDS011;1991;48.682;9.030;2023-05-17T09:54:50;7.68;;;2.55;;
3953;SDS011;1991;48.682;9.030;2023-05-17T09:57:17;4.97;;;3.00;;
3953;SDS011;1991;48.682;9.030;2023-05-17T09:59:43;5.60;;;2.50;;
3953;SDS011;1991;48.682;9.030;2023-05-17T10:02:11;4.82;;;2.20;;
3953;SDS011;1991;48.682;9.030;2023-05-17T10:04:48;4.53;;;2.30;;
3953;SDS011;1991;48.682;9.030;2023-05-17T10:07:18;3.20;;;2.13;;
3953;SDS011;1991;48.682;9.030;2023-05-17T10:09:48;4.22;;;2.17;;
3953;SDS011;1991;48.682;9.030;2023-05-17T10:12:20;5.25;;;2.60;;
3953;SDS011;1991;48.682;9.030;2023-05-17T10:14:46;5.22;;;2.70;;
3953;SDS011;1991;48.682;9.030;2023-05-17T10:17:13;5.95;;;2.33;;
3953;SDS011;1991;48.682;9.030;2023-05-17T10:19:39;5.05;;;2.35;;
3953;SDS011;1991;48.682;9.030;2023-05-17T10:22:06;7.38;;;3.03;;
3953;SDS011;1991;48.682;9.030;2023-05-17T10:24:33;6.43;;;2.50;;
3953;SDS011;1991;48.682;9.030;2023-05-17T10:27:01;4.70;;;2.97;;
3953;SDS011;1991;48.682;9.030;2023-05-17T10:29:27;5.07;;;3.00;;
3953;SDS011;1991;48.682;9.030;2023-05-17T10:31:55;6.78;;;2.88;;
3953;SDS011;1991;48.682;9.030;2023-05-17T10:34:22;5.80;;;2.53;;
3953;SDS011;1991;48.682;9.030;2023-05-17T10:36:51;4.88;;;2.92;;
3953;SDS011;1991;48.682;9.030;2023-05-17T10:39:19;4.22;;;2.75;;
3953;SDS011;1991;48.682;9.030;2023-05-17T10:41:46;5.63;;;2.58;;
3953;SDS011;1991;48.682;9.030;2023-05-17T10:44:16;5.47;;;2.63;;
3953;SDS011;1991;48.682;9.030;2023-05-17T10:46:56;4.53;;;2.35;;
3953;SDS011;1991;48.682;9.030;2023-05-17T10:49:28;3.85;;;2.50;;
3953;SDS011;1991;48.682;9.030;2023-05-17T10:51:55;8.38;;;2.85;;
3953;SDS011;1991;48.682;9.030;2023-05-17T10:54:32;5.63;;;2.53;;
3953;SDS011;1991;48.682;9.030;2023-05-17T10:57:00;7.40;;;3.03;;
3953;SDS011;1991;48.682;9.030;2023-05-17T10:59:30;10.27;;;2.85;;
3953;SDS011;1991;48.682;9.030;2023-05-17T11:02:03;8.05;;;2.90;;
3953;SDS011;1991;48.682;9.030;2023-05-17T11:12:22;4.55;;;2.45;;
3953;SDS011;1991;48.682;9.030;2023-05-17T11:14:53;5.30;;;2.88;;
3953;SDS011;1991;48.682;9.030;2023-05-17T11:17:23;5.13;;;3.08;;
3953;SDS011;1991;48.682;9.030;2023-05-17T11:22:23;6.63;;;2.75;;
3953;SDS011;1991;48.682;9.030;2023-05-17T11:24:54;5.97;;;2.97;;
3953;SDS011;1991;48.682;9.030;2023-05-17T11:27:21;5.60;;;3.10;;
3953;SDS011;1991;48.682;9.030;2023-05-17T11:29:54;6.20;;;3.10;;
3953;SDS011;1991;48.682;9.030;2023-05-17T11:32:27;5.53;;;2.85;;
3953;SDS011;1991;48.682;9.030;2023-05-17T11:34:59;6.28;;;2.75;;
3953;SDS011;1991;48.682;9.030;2023-05-17T11:37:26;5.70;;;2.60;;
3953;SDS011;1991;48.682;9.030;2023-05-17T11:40:11;6.40;;;2.60;;
3953;SDS011;1991;48.682;9.030;2023-05-17T11:42:37;6.50;;;3.10;;
3953;SDS011;1991;48.682;9.030;2023-05-17T11:45:03;7.13;;;2.65;;
3953;SDS011;1991;48.682;9.030;2023-05-17T11:47:30;6.32;;;2.90;;
3953;SDS011;1991;48.682;9.030;2023-05-17T11:50:00;9.07;;;3.25;;
3953;SDS011;1991;48.682;9.030;2023-05-17T11:52:28;7.75;;;2.97;;
3953;SDS011;1991;48.682;9.030;2023-05-17T11:54:54;5.30;;;2.50;;
3953;SDS011;1991;48.682;9.030;2023-05-17T11:57:22;5.43;;;2.72;;
3953;SDS011;1991;48.682;9.030;2023-05-17T12:00:00;4.85;;;2.85;;
3953;SDS011;1991;48.682;9.030;2023-05-17T12:02:29;4.93;;;2.70;;
3953;SDS011;1991;48.682;9.030;2023-05-17T12:04:55;4.60;;;2.90;;
3953;SDS011;1991;48.682;9.030;2023-05-17T12:07:21;4.75;;;2.90;;
3953;SDS011;1991;48.682;9.030;2023-05-17T12:09:47;5.13;;;3.10;;
3953;SDS011;1991;48.682;9.030;2023-05-17T12:12:13;7.90;;;2.90;;
3953;SDS011;1991;48.682;9.030;2023-05-17T12:14:41;7.10;;;3.13;;
3953;SDS011;1991;48.682;9.030;2023-05-17T12:17:07;12.20;;;3.50;;
3953;SDS011;1991;48.682;9.030;2023-05-17T12:19:36;6.55;;;3.17;;
3953;SDS011;1991;48.682;9.030;2023-05-17T12:22:08;5.53;;;2.70;;
3953;SDS011;1991;48.682;9.030;2023-05-17T12:24:38;7.75;;;2.67;;
3953;SDS011;1991;48.682;9.030;2023-05-17T12:27:05;7.28;;;3.00;;
3953;SDS011;1991;48.682;9.030;2023-05-17T12:29:31;5.93;;;3.13;;
3953;SDS011;1991;48.682;9.030;2023-05-17T12:31:56;6.57;;;2.97;;
3953;SDS011;1991;48.682;9.030;2023-05-17T12:34:23;7.93;;;3.10;;
3953;SDS011;1991;48.682;9.030;2023-05-17T12:36:49;6.43;;;2.50;;
3953;SDS011;1991;48.682;9.030;2023-05-17T12:39:16;5.10;;;2.78;;
3953;SDS011;1991;48.682;9.030;2023-05-17T12:41:47;5.93;;;2.80;;
3953;SDS011;1991;48.682;9.030;2023-05-17T12:44:16;5.68;;;2.58;;
3953;SDS011;1991;48.682;9.030;2023-05-17T12:46:44;6.03;;;2.90;;
3953;SDS011;1991;48.682;9.030;2023-05-17T12:49:20;7.78;;;2.45;;
3953;SDS011;1991;48.682;9.030;2023-05-17T12:51:46;8.82;;;3.10;;
3953;SDS011;1991;48.682;9.030;2023-05-17T12:54:13;5.88;;;2.50;;
3953;SDS011;1991;48.682;9.030;2023-05-17T12:56:48;6.70;;;2.80;;
3953;SDS011;1991;48.682;9.030;2023-05-17T12:59:15;4.13;;;2.78;;
3953;SDS011;1991;48.682;9.030;2023-05-17T13:01:48;5.95;;;2.80;;
3953;SDS011;1991;48.682;9.030;2023-05-17T13:04:20;5.90;;;2.30;;
3953;SDS011;1991;48.682;9.030;2023-05-17T13:09:21;6.15;;;2.67;;
3953;SDS011;1991;48.682;9.030;2023-05-17T13:14:45;7.18;;;3.20;;
3953;SDS011;1991;48.682;9.030;2023-05-17T13:17:16;8.73;;;3.15;;
3953;SDS011;1991;48.682;9.030;2023-05-17T13:19:50;6.75;;;3.05;;
3953;SDS011;1991;48.682;9.030;2023-05-17T13:22:16;9.07;;;3.33;;
3953;SDS011;1991;48.682;9.030;2023-05-17T13:24:42;6.78;;;3.08;;
3953;SDS011;1991;48.682;9.030;2023-05-17T13:27:09;8.23;;;2.88;;
3953;SDS011;1991;48.682;9.030;2023-05-17T13:29:36;8.35;;;3.60;;
3953;SDS011;1991;48.682;9.030;2023-05-17T13:32:04;5.68;;;3.22;;
3953;SDS011;1991;48.682;9.030;2023-05-17T13:34:30;6.40;;;2.95;;
3953;SDS011;1991;48.682;9.030;2023-05-17T13:36:56;5.82;;;2.90;;
3953;SDS011;1991;48.682;9.030;2023-05-17T13:39:22;6.30;;;2.80;;
3953;SDS011;1991;48.682;9.030;2023-05-17T13:41:48;7.60;;;3.15;;
3953;SDS011;1991;48.682;9.030;2023-05-17T13:44:13;8.57;;;3.13;;
3953;SDS011;1991;48.682;9.030;2023-05-17T13:46:39;7.63;;;2.78;;
3953;SDS011;1991;48.682;9.030;2023-05-17T13:49:04;3.78;;;2.60;;
3953;SDS011;1991;48.682;9.030;2023-05-17T13:51:32;8.25;;;3.00;;
3953;SDS011;1991;48.682;9.030;2023-05-17T13:53:58;3.45;;;2.28;;
3953;SDS011;1991;48.682;9.030;2023-05-17T13:56:24;8.68;;;3.30;;
3953;SDS011;1991;48.682;9.030;2023-05-17T13:58:51;7.07;;;2.65;;
3953;SDS011;1991;48.682;9.030;2023-05-17T14:01:16;3.92;;;2.67;;
3953;SDS011;1991;48.682;9.030;2023-05-17T14:03:43;6.70;;;2.83;;
3953;SDS011;1991;48.682;9.030;2023-05-17T14:06:09;4.50;;;2.83;;
3953;SDS011;1991;48.682;9.030;2023-05-17T14:08:34;4.13;;;2.60;;
3953;SDS011;1991;48.682;9.030;2023-05-17T14:11:00;6.30;;;2.80;;
3953;SDS011;1991;48.682;9.030;2023-05-17T14:13:26;6.15;;;3.00;;
3953;SDS011;1991;48.682;9.030;2023-05-17T14:15:52;6.78;;;3.10;;
3953;SDS011;1991;48.682;9.030;2023-05-17T14:18:17;4.28;;;2.55;;
3953;SDS011;1991;48.682;9.030;2023-05-17T14:20:43;4.78;;;2.22;;
3953;SDS011;1991;48.682;9.030;2023-05-17T14:23:09;7.07;;;2.40;;
3953;SDS011;1991;48.682;9.030;2023-05-17T14:25:34;4.97;;;2.88;;
3953;SDS011;1991;48.682;9.030;2023-05-17T14:28:01;4.32;;;2.60;;
3953;SDS011;1991;48.682;9.030;2023-05-17T14:30:27;6.10;;;2.78;;
3953;SDS011;1991;48.682;9.030;2023-05-17T14:32:52;4.47;;;2.70;;
3953;SDS011;1991;48.682;9.030;2023-05-17T14:35:18;3.85;;;2.30;;
3953;SDS011;1991;48.682;9.030;2023-05-17T14:37:43;5.07;;;2.75;;
3953;SDS011;1991;48.682;9.030;2023-05-17T14:40:09;6.40;;;3.08;;
3953;SDS011;1991;48.682;9.030;2023-05-17T14:42:36;7.28;;;2.70;;
3953;SDS011;1991;48.682;9.030;2023-05-17T14:45:02;8.23;;;2.85;;
3953;SDS011;1991;48.682;9.030;2023-05-17T14:47:28;4.95;;;2.58;;
3953;SDS011;1991;48.682;9.030;2023-05-17T14:49:54;7.88;;;2.97;;
3953;SDS011;1991;48.682;9.030;2023-05-17T14:52:20;5.53;;;2.88;;
3953;SDS011;1991;48.682;9.030;2023-05-17T14:54:45;6.18;;;3.28;;
3953;SDS011;1991;48.682;9.030;2023-05-17T14:57:11;8.50;;;4.15;;
3953;SDS011;1991;48.682;9.030;2023-05-17T14:59:37;5.60;;;2.63;;
3953;SDS011;1991;48.682;9.030;2023-05-17T15:02:05;8.85;;;2.90;;
3953;SDS011;1991;48.682;9.030;2023-05-17T15:04:31;7.07;;;3.00;;
3953;SDS011;1991;48.682;9.030;2023-05-17T15:06:57;4.88;;;2.53;;
3953;SDS011;1991;48.682;9.030;2023-05-17T15:09:23;6.65;;;3.20;;
3953;SDS011;1991;48.682;9.030;2023-05-17T15:11:49;8.20;;;3.08;;
3953;SDS011;1991;48.682;9.030;2023-05-17T15:14:15;5.97;;;2.85;;
3953;SDS011;1991;48.682;9.030;2023-05-17T15:16:46;6.90;;;3.17;;
3953;SDS011;1991;48.682;9.030;2023-05-17T15:19:12;5.40;;;2.97;;
3953;SDS011;1991;48.682;9.030;2023-05-17T15:21:40;5.80;;;2.85;;
3953;SDS011;1991;48.682;9.030;2023-05-17T15:24:06;7.47;;;3.30;;
3953;SDS011;1991;48.682;9.030;2023-05-17T15:26:32;6.25;;;3.03;;
3953;SDS011;1991;48.682;9.030;2023-05-17T15:28:58;7.47;;;3.20;;
3953;SDS011;1991;48.682;9.030;2023-05-17T15:31:23;5.03;;;2.58;;
3953;SDS011;1991;48.682;9.030;2023-05-17T15:33:49;5.75;;;2.88;;
3953;SDS011;1991;48.682;9.030;2023-05-17T15:36:15;7.55;;;3.92;;
3953;SDS011;1991;48.682;9.030;2023-05-17T15:38:41;5.22;;;2.90;;
3953;SDS011;1991;48.682;9.030;2023-05-17T15:41:09;11.77;;;8.20;;
3953;SDS011;1991;48.682;9.030;2023-05-17T15:43:36;7.53;;;3.10;;